Farewell, Alaska
Current Conditions -  °F | °C
As of 8:56 PM on Thursday 18 Dec 2014 (Local Time) from PAFS Reporting Station
Overcast Overcast  
Wind Chill:   Ceiling: 700
Heat Index: 17°   Visibility: 10mi
Dew Point: 14°   Wind: 7mph
Humidity: 88%   Direction: 30°NNE
Pressure: 29.4"   Gusts: NA
Location:  62.51°N, 153.89°W
Report Text: PAFS 190556Z AUTO 03006KT 10SM OVC007 M08/M10 A2940 RMK AO2 TSNO 58024 60000 T10831100 11083 21088 SLP970 $
Loading
Personal Weather Stations






























Interactive Weather Map New forecast layout! Learn more

10-Day Weather Forecast

Advertisements
Track Severe Weather on mobile